sensor_id;sensor_type;location;lat;lon;timestamp;temperature;humidity
51567;DHT22;37657;53.182;5.638;2024-01-11T00:00:19;-4.10;99.90
51567;DHT22;37657;53.182;5.638;2024-01-11T00:02:45;-3.40;99.90
51567;DHT22;37657;53.182;5.638;2024-01-11T00:05:10;-4.00;99.90
51567;DHT22;37657;53.182;5.638;2024-01-11T00:07:36;-4.00;99.90
51567;DHT22;37657;53.182;5.638;2024-01-11T00:10:02;-4.00;99.90
51567;DHT22;37657;53.182;5.638;2024-01-11T00:12:29;-4.00;99.90
51567;DHT22;37657;53.182;5.638;2024-01-11T00:14:55;-4.00;99.90
51567;DHT22;37657;53.182;5.638;2024-01-11T00:17:20;-3.20;99.90
51567;DHT22;37657;53.182;5.638;2024-01-11T00:19:46;-3.90;99.90
51567;DHT22;37657;53.182;5.638;2024-01-11T00:22:11;-3.90;99.90
51567;DHT22;37657;53.182;5.638;2024-01-11T00:24:37;-3.90;99.90
51567;DHT22;37657;53.182;5.638;2024-01-11T00:27:06;-3.80;99.90
51567;DHT22;37657;53.182;5.638;2024-01-11T00:29:32;-3.80;99.90
51567;DHT22;37657;53.182;5.638;2024-01-11T00:31:57;-3.80;99.90
51567;DHT22;37657;53.182;5.638;2024-01-11T00:34:23;-3.90;99.90
51567;DHT22;37657;53.182;5.638;2024-01-11T00:36:49;-3.90;99.90
51567;DHT22;37657;53.182;5.638;2024-01-11T00:39:15;-3.90;99.90
51567;DHT22;37657;53.182;5.638;2024-01-11T00:41:41;-3.90;99.90
51567;DHT22;37657;53.182;5.638;2024-01-11T00:44:06;-3.90;99.90
51567;DHT22;37657;53.182;5.638;2024-01-11T00:46:33;-3.90;99.90
51567;DHT22;37657;53.182;5.638;2024-01-11T00:48:59;-3.90;99.90
51567;DHT22;37657;53.182;5.638;2024-01-11T00:51:25;-3.90;99.90
51567;DHT22;37657;53.182;5.638;2024-01-11T00:53:50;-3.90;99.90
51567;DHT22;37657;53.182;5.638;2024-01-11T00:56:17;-3.90;99.90
51567;DHT22;37657;53.182;5.638;2024-01-11T00:58:43;-3.90;99.90
51567;DHT22;37657;53.182;5.638;2024-01-11T01:01:09;-3.90;99.90
51567;DHT22;37657;53.182;5.638;2024-01-11T01:03:35;-4.00;99.90
51567;DHT22;37657;53.182;5.638;2024-01-11T01:06:00;-3.90;99.90
51567;DHT22;37657;53.182;5.638;2024-01-11T01:08:27;-3.90;99.90
51567;DHT22;37657;53.182;5.638;2024-01-11T01:10:52;-3.90;99.90
51567;DHT22;37657;53.182;5.638;2024-01-11T01:13:18;-3.80;99.90
51567;DHT22;37657;53.182;5.638;2024-01-11T01:15:43;-3.90;99.90
51567;DHT22;37657;53.182;5.638;2024-01-11T01:18:09;-3.90;99.90
51567;DHT22;37657;53.182;5.638;2024-01-11T01:20:35;-4.00;99.90
51567;DHT22;37657;53.182;5.638;2024-01-11T01:23:01;-4.10;99.90
51567;DHT22;37657;53.182;5.638;2024-01-11T01:25:26;-4.00;99.90
51567;DHT22;37657;53.182;5.638;2024-01-11T01:27:52;-4.10;99.90
51567;DHT22;37657;53.182;5.638;2024-01-11T01:30:18;-4.10;99.90
51567;DHT22;37657;53.182;5.638;2024-01-11T01:32:43;-4.10;99.90
51567;DHT22;37657;53.182;5.638;2024-01-11T01:35:09;-4.10;99.90
51567;DHT22;37657;53.182;5.638;2024-01-11T01:37:34;-4.00;99.90
51567;DHT22;37657;53.182;5.638;2024-01-11T01:40:00;-4.10;99.90
51567;DHT22;37657;53.182;5.638;2024-01-11T01:42:26;-4.20;99.90
51567;DHT22;37657;53.182;5.638;2024-01-11T01:44:51;-4.20;99.90
51567;DHT22;37657;53.182;5.638;2024-01-11T01:47:17;-4.20;99.90
51567;DHT22;37657;53.182;5.638;2024-01-11T01:49:44;-4.20;99.90
51567;DHT22;37657;53.182;5.638;2024-01-11T01:52:11;-4.10;99.90
51567;DHT22;37657;53.182;5.638;2024-01-11T01:54:39;-4.20;99.90
51567;DHT22;37657;53.182;5.638;2024-01-11T01:57:07;-4.30;99.90
51567;DHT22;37657;53.182;5.638;2024-01-11T01:59:33;-4.20;99.90
51567;DHT22;37657;53.182;5.638;2024-01-11T02:01:59;-4.30;99.90
51567;DHT22;37657;53.182;5.638;2024-01-11T02:04:25;-4.20;99.90
51567;DHT22;37657;53.182;5.638;2024-01-11T02:06:53;-4.10;99.90
51567;DHT22;37657;53.182;5.638;2024-01-11T02:09:20;-4.00;99.90
51567;DHT22;37657;53.182;5.638;2024-01-11T02:11:46;-4.00;99.90
51567;DHT22;37657;53.182;5.638;2024-01-11T02:14:12;-4.00;99.90
51567;DHT22;37657;53.182;5.638;2024-01-11T02:16:38;-4.10;99.90
51567;DHT22;37657;53.182;5.638;2024-01-11T02:19:05;-4.00;99.90
51567;DHT22;37657;53.182;5.638;2024-01-11T02:21:33;-3.90;99.90
51567;DHT22;37657;53.182;5.638;2024-01-11T02:24:03;-4.10;99.90
51567;DHT22;37657;53.182;5.638;2024-01-11T02:26:29;-4.10;99.90
51567;DHT22;37657;53.182;5.638;2024-01-11T02:28:54;-4.10;99.90
51567;DHT22;37657;53.182;5.638;2024-01-11T02:31:20;-4.10;99.90
51567;DHT22;37657;53.182;5.638;2024-01-11T02:33:46;-4.20;99.90
51567;DHT22;37657;53.182;5.638;2024-01-11T02:36:13;-4.10;99.90
51567;DHT22;37657;53.182;5.638;2024-01-11T02:38:42;-4.00;99.90
51567;DHT22;37657;53.182;5.638;2024-01-11T02:41:08;-4.10;99.90
51567;DHT22;37657;53.182;5.638;2024-01-11T02:43:34;-3.50;99.90
51567;DHT22;37657;53.182;5.638;2024-01-11T02:46:02;-4.00;99.90
51567;DHT22;37657;53.182;5.638;2024-01-11T02:48:29;-4.10;99.90
51567;DHT22;37657;53.182;5.638;2024-01-11T02:50:56;-3.90;99.90
51567;DHT22;37657;53.182;5.638;2024-01-11T02:53:21;-4.00;99.90
51567;DHT22;37657;53.182;5.638;2024-01-11T02:55:47;-4.00;99.90
51567;DHT22;37657;53.182;5.638;2024-01-11T02:58:12;-3.90;99.90
51567;DHT22;37657;53.182;5.638;2024-01-11T03:00:38;-3.90;99.90
51567;DHT22;37657;53.182;5.638;2024-01-11T03:03:04;-3.90;99.90
51567;DHT22;37657;53.182;5.638;2024-01-11T03:05:30;-3.90;99.90
51567;DHT22;37657;53.182;5.638;2024-01-11T03:07:55;-3.90;99.90
51567;DHT22;37657;53.182;5.638;2024-01-11T03:10:21;-3.90;99.90
51567;DHT22;37657;53.182;5.638;2024-01-11T03:12:47;-3.80;99.90
51567;DHT22;37657;53.182;5.638;2024-01-11T03:15:15;-3.80;99.90
51567;DHT22;37657;53.182;5.638;2024-01-11T03:17:40;-4.00;99.90
51567;DHT22;37657;53.182;5.638;2024-01-11T03:20:07;-3.90;99.90
51567;DHT22;37657;53.182;5.638;2024-01-11T03:22:32;-3.90;99.90
51567;DHT22;37657;53.182;5.638;2024-01-11T03:24:58;-4.10;99.90
51567;DHT22;37657;53.182;5.638;2024-01-11T03:27:24;-4.10;99.90
51567;DHT22;37657;53.182;5.638;2024-01-11T03:29:50;-4.00;99.90
51567;DHT22;37657;53.182;5.638;2024-01-11T03:32:16;-4.10;99.90
51567;DHT22;37657;53.182;5.638;2024-01-11T03:34:42;-4.00;99.90
51567;DHT22;37657;53.182;5.638;2024-01-11T03:37:07;-4.20;99.90
51567;DHT22;37657;53.182;5.638;2024-01-11T03:39:34;-4.20;99.90
51567;DHT22;37657;53.182;5.638;2024-01-11T03:41:59;-4.20;99.90
51567;DHT22;37657;53.182;5.638;2024-01-11T03:44:25;-4.10;99.90
51567;DHT22;37657;53.182;5.638;2024-01-11T03:46:51;-4.20;99.90
51567;DHT22;37657;53.182;5.638;2024-01-11T03:49:17;-4.20;99.90
51567;DHT22;37657;53.182;5.638;2024-01-11T03:51:43;-4.20;99.90
51567;DHT22;37657;53.182;5.638;2024-01-11T03:54:09;-4.30;99.90
51567;DHT22;37657;53.182;5.638;2024-01-11T03:56:38;-4.20;99.90
51567;DHT22;37657;53.182;5.638;2024-01-11T03:59:05;-4.20;99.90
51567;DHT22;37657;53.182;5.638;2024-01-11T04:01:31;-4.40;99.90
51567;DHT22;37657;53.182;5.638;2024-01-11T04:03:57;-4.40;99.90
51567;DHT22;37657;53.182;5.638;2024-01-11T04:06:23;-4.40;99.90
51567;DHT22;37657;53.182;5.638;2024-01-11T04:08:50;-4.20;99.90
51567;DHT22;37657;53.182;5.638;2024-01-11T04:11:16;-4.40;99.90
51567;DHT22;37657;53.182;5.638;2024-01-11T04:13:42;-4.50;99.90
51567;DHT22;37657;53.182;5.638;2024-01-11T04:16:08;-4.50;99.90
51567;DHT22;37657;53.182;5.638;2024-01-11T04:18:34;-4.50;99.90
51567;DHT22;37657;53.182;5.638;2024-01-11T04:20:59;-4.50;99.90
51567;DHT22;37657;53.182;5.638;2024-01-11T04:23:25;-4.50;99.90
51567;DHT22;37657;53.182;5.638;2024-01-11T04:25:51;-4.60;99.90
51567;DHT22;37657;53.182;5.638;2024-01-11T04:28:19;-4.50;99.90
51567;DHT22;37657;53.182;5.638;2024-01-11T04:30:45;-4.40;99.90
51567;DHT22;37657;53.182;5.638;2024-01-11T04:33:10;-4.50;99.90
51567;DHT22;37657;53.182;5.638;2024-01-11T04:35:36;-4.40;99.90
51567;DHT22;37657;53.182;5.638;2024-01-11T04:38:02;-4.50;99.90
51567;DHT22;37657;53.182;5.638;2024-01-11T04:40:28;-4.60;99.90
51567;DHT22;37657;53.182;5.638;2024-01-11T04:42:54;-4.40;99.90
51567;DHT22;37657;53.182;5.638;2024-01-11T04:45:19;-3.80;99.90
51567;DHT22;37657;53.182;5.638;2024-01-11T04:47:45;-4.50;99.90
51567;DHT22;37657;53.182;5.638;2024-01-11T04:50:11;-4.60;99.90
51567;DHT22;37657;53.182;5.638;2024-01-11T04:52:36;-4.40;99.90
51567;DHT22;37657;53.182;5.638;2024-01-11T04:55:02;-4.50;99.90
51567;DHT22;37657;53.182;5.638;2024-01-11T04:57:28;-4.50;99.90
51567;DHT22;37657;53.182;5.638;2024-01-11T04:59:54;-4.40;99.90
51567;DHT22;37657;53.182;5.638;2024-01-11T05:02:22;-4.50;99.90
51567;DHT22;37657;53.182;5.638;2024-01-11T05:04:48;-4.50;99.90
51567;DHT22;37657;53.182;5.638;2024-01-11T05:07:14;-4.40;99.90
51567;DHT22;37657;53.182;5.638;2024-01-11T05:09:40;-4.40;99.90
51567;DHT22;37657;53.182;5.638;2024-01-11T05:12:06;-4.30;99.90
51567;DHT22;37657;53.182;5.638;2024-01-11T05:14:32;-4.20;99.90
51567;DHT22;37657;53.182;5.638;2024-01-11T05:16:57;-4.30;99.90
51567;DHT22;37657;53.182;5.638;2024-01-11T05:19:23;-4.20;99.90
51567;DHT22;37657;53.182;5.638;2024-01-11T05:21:49;-3.90;99.90
51567;DHT22;37657;53.182;5.638;2024-01-11T05:24:15;-4.00;99.90
51567;DHT22;37657;53.182;5.638;2024-01-11T05:26:40;-3.80;99.90
51567;DHT22;37657;53.182;5.638;2024-01-11T05:29:06;-3.70;99.90
51567;DHT22;37657;53.182;5.638;2024-01-11T05:31:31;-3.50;99.90
51567;DHT22;37657;53.182;5.638;2024-01-11T05:33:57;-3.50;99.90
51567;DHT22;37657;53.182;5.638;2024-01-11T05:36:23;-3.50;99.90
51567;DHT22;37657;53.182;5.638;2024-01-11T05:38:48;-3.30;99.90
51567;DHT22;37657;53.182;5.638;2024-01-11T05:41:14;-3.40;99.90
51567;DHT22;37657;53.182;5.638;2024-01-11T05:43:40;-3.20;99.90
51567;DHT22;37657;53.182;5.638;2024-01-11T05:46:06;-3.30;99.90
51567;DHT22;37657;53.182;5.638;2024-01-11T05:48:32;-3.20;99.90
51567;DHT22;37657;53.182;5.638;2024-01-11T05:50:58;-3.00;99.90
51567;DHT22;37657;53.182;5.638;2024-01-11T05:53:25;-3.00;99.90
51567;DHT22;37657;53.182;5.638;2024-01-11T05:55:53;-3.00;99.90
51567;DHT22;37657;53.182;5.638;2024-01-11T05:58:18;-3.00;99.90
51567;DHT22;37657;53.182;5.638;2024-01-11T06:00:45;-2.90;99.90
51567;DHT22;37657;53.182;5.638;2024-01-11T06:03:14;-2.70;99.90
51567;DHT22;37657;53.182;5.638;2024-01-11T06:05:39;-2.60;99.90
51567;DHT22;37657;53.182;5.638;2024-01-11T06:08:05;-2.70;99.90
51567;DHT22;37657;53.182;5.638;2024-01-11T06:10:31;-2.60;99.90
51567;DHT22;37657;53.182;5.638;2024-01-11T06:12:56;-2.60;99.90
51567;DHT22;37657;53.182;5.638;2024-01-11T06:15:22;-2.50;99.90
51567;DHT22;37657;53.182;5.638;2024-01-11T06:17:48;-2.50;99.90
51567;DHT22;37657;53.182;5.638;2024-01-11T06:20:13;-2.60;99.90
51567;DHT22;37657;53.182;5.638;2024-01-11T06:22:39;-2.40;99.90
51567;DHT22;37657;53.182;5.638;2024-01-11T06:25:05;-2.50;99.90
51567;DHT22;37657;53.182;5.638;2024-01-11T06:27:31;-2.30;99.90
51567;DHT22;37657;53.182;5.638;2024-01-11T06:29:56;-2.30;99.90
51567;DHT22;37657;53.182;5.638;2024-01-11T06:32:22;-2.30;99.90
51567;DHT22;37657;53.182;5.638;2024-01-11T06:34:48;-2.40;99.90
51567;DHT22;37657;53.182;5.638;2024-01-11T06:37:13;-2.30;99.90
51567;DHT22;37657;53.182;5.638;2024-01-11T06:39:39;-2.30;99.90
51567;DHT22;37657;53.182;5.638;2024-01-11T06:42:04;-2.20;99.90
51567;DHT22;37657;53.182;5.638;2024-01-11T06:44:30;-2.10;99.90
51567;DHT22;37657;53.182;5.638;2024-01-11T06:46:56;-2.20;99.90
51567;DHT22;37657;53.182;5.638;2024-01-11T06:49:22;-2.10;99.90
51567;DHT22;37657;53.182;5.638;2024-01-11T06:51:48;-2.10;99.90
51567;DHT22;37657;53.182;5.638;2024-01-11T06:54:13;-2.00;99.90
51567;DHT22;37657;53.182;5.638;2024-01-11T06:56:39;-2.00;99.90
51567;DHT22;37657;53.182;5.638;2024-01-11T06:59:05;-1.90;99.90
51567;DHT22;37657;53.182;5.638;2024-01-11T07:01:30;-1.90;99.90
51567;DHT22;37657;53.182;5.638;2024-01-11T07:03:56;-1.90;99.90
51567;DHT22;37657;53.182;5.638;2024-01-11T07:06:22;-1.70;99.90
51567;DHT22;37657;53.182;5.638;2024-01-11T07:08:48;-1.80;99.90
51567;DHT22;37657;53.182;5.638;2024-01-11T07:11:13;-1.70;99.90
51567;DHT22;37657;53.182;5.638;2024-01-11T07:13:39;-1.60;99.90
51567;DHT22;37657;53.182;5.638;2024-01-11T07:16:05;-1.50;99.90
51567;DHT22;37657;53.182;5.638;2024-01-11T07:18:31;-1.60;99.90
51567;DHT22;37657;53.182;5.638;2024-01-11T07:20:57;-1.40;99.90
51567;DHT22;37657;53.182;5.638;2024-01-11T07:23:23;-1.30;99.90
51567;DHT22;37657;53.182;5.638;2024-01-11T07:25:49;-1.40;99.90
51567;DHT22;37657;53.182;5.638;2024-01-11T07:28:15;-1.30;99.90
51567;DHT22;37657;53.182;5.638;2024-01-11T07:30:42;-1.30;99.90
51567;DHT22;37657;53.182;5.638;2024-01-11T07:33:08;-1.40;99.90
51567;DHT22;37657;53.182;5.638;2024-01-11T07:35:35;-1.20;99.90
51567;DHT22;37657;53.182;5.638;2024-01-11T07:38:00;-1.30;99.90
51567;DHT22;37657;53.182;5.638;2024-01-11T07:40:26;-1.20;99.90
51567;DHT22;37657;53.182;5.638;2024-01-11T07:42:52;-1.30;99.90
51567;DHT22;37657;53.182;5.638;2024-01-11T07:45:18;-1.20;99.90
51567;DHT22;37657;53.182;5.638;2024-01-11T07:47:44;-1.10;99.90
51567;DHT22;37657;53.182;5.638;2024-01-11T07:50:10;-1.30;99.90
51567;DHT22;37657;53.182;5.638;2024-01-11T07:52:36;-1.10;99.90
51567;DHT22;37657;53.182;5.638;2024-01-11T07:55:07;-1.20;99.90
51567;DHT22;37657;53.182;5.638;2024-01-11T07:57:33;-1.10;99.90
51567;DHT22;37657;53.182;5.638;2024-01-11T07:59:59;-1.00;99.90
51567;DHT22;37657;53.182;5.638;2024-01-11T08:02:26;-1.00;99.90
51567;DHT22;37657;53.182;5.638;2024-01-11T08:04:51;-1.00;99.90
51567;DHT22;37657;53.182;5.638;2024-01-11T08:07:17;-1.10;99.90
51567;DHT22;37657;53.182;5.638;2024-01-11T08:09:43;-1.10;99.90
51567;DHT22;37657;53.182;5.638;2024-01-11T08:12:17;-1.00;99.90
51567;DHT22;37657;53.182;5.638;2024-01-11T08:14:42;-1.00;99.90
51567;DHT22;37657;53.182;5.638;2024-01-11T08:17:08;-1.00;99.90
51567;DHT22;37657;53.182;5.638;2024-01-11T08:19:34;-1.00;99.90
51567;DHT22;37657;53.182;5.638;2024-01-11T08:22:00;-0.90;99.90
51567;DHT22;37657;53.182;5.638;2024-01-11T08:24:26;-0.70;99.90
51567;DHT22;37657;53.182;5.638;2024-01-11T08:26:52;-0.90;99.90
51567;DHT22;37657;53.182;5.638;2024-01-11T08:29:18;-0.80;99.90
51567;DHT22;37657;53.182;5.638;2024-01-11T08:31:48;-0.70;99.90
51567;DHT22;37657;53.182;5.638;2024-01-11T08:34:13;-0.80;99.90
51567;DHT22;37657;53.182;5.638;2024-01-11T08:36:39;-0.60;99.90
51567;DHT22;37657;53.182;5.638;2024-01-11T08:39:05;-0.40;99.90
51567;DHT22;37657;53.182;5.638;2024-01-11T08:41:32;-0.70;99.90
51567;DHT22;37657;53.182;5.638;2024-01-11T08:43:58;-0.50;99.90
51567;DHT22;37657;53.182;5.638;2024-01-11T08:46:25;-0.40;99.90
51567;DHT22;37657;53.182;5.638;2024-01-11T08:48:51;-0.40;99.90
51567;DHT22;37657;53.182;5.638;2024-01-11T08:51:17;0.20;99.90
51567;DHT22;37657;53.182;5.638;2024-01-11T08:53:44;-0.20;99.90
51567;DHT22;37657;53.182;5.638;2024-01-11T08:56:09;-0.40;99.90
51567;DHT22;37657;53.182;5.638;2024-01-11T08:58:35;-0.30;99.90
51567;DHT22;37657;53.182;5.638;2024-01-11T09:01:02;-0.20;99.90
51567;DHT22;37657;53.182;5.638;2024-01-11T09:03:28;-0.20;99.90
51567;DHT22;37657;53.182;5.638;2024-01-11T09:05:54;0.60;99.90
51567;DHT22;37657;53.182;5.638;2024-01-11T09:08:23;0.10;99.90
51567;DHT22;37657;53.182;5.638;2024-01-11T09:10:48;0.10;99.90
51567;DHT22;37657;53.182;5.638;2024-01-11T09:13:14;0.20;99.90
51567;DHT22;37657;53.182;5.638;2024-01-11T09:15:41;0.20;99.90
51567;DHT22;37657;53.182;5.638;2024-01-11T09:18:07;0.40;99.90
51567;DHT22;37657;53.182;5.638;2024-01-11T09:20:34;0.30;99.90
51567;DHT22;37657;53.182;5.638;2024-01-11T09:23:00;0.50;99.90
51567;DHT22;37657;53.182;5.638;2024-01-11T09:25:29;0.60;99.90
51567;DHT22;37657;53.182;5.638;2024-01-11T09:27:55;0.60;99.90
51567;DHT22;37657;53.182;5.638;2024-01-11T09:30:21;0.70;99.90
51567;DHT22;37657;53.182;5.638;2024-01-11T09:32:46;0.70;99.90
51567;DHT22;37657;53.182;5.638;2024-01-11T09:35:13;0.90;99.90
51567;DHT22;37657;53.182;5.638;2024-01-11T09:37:39;0.90;99.90
51567;DHT22;37657;53.182;5.638;2024-01-11T09:40:05;0.90;99.90
51567;DHT22;37657;53.182;5.638;2024-01-11T09:42:36;1.10;99.90
51567;DHT22;37657;53.182;5.638;2024-01-11T09:45:05;1.20;99.90
51567;DHT22;37657;53.182;5.638;2024-01-11T09:47:34;1.00;99.90
51567;DHT22;37657;53.182;5.638;2024-01-11T09:50:02;1.00;99.90
51567;DHT22;37657;53.182;5.638;2024-01-11T09:52:28;1.10;99.90
51567;DHT22;37657;53.182;5.638;2024-01-11T09:54:55;1.20;99.90
51567;DHT22;37657;53.182;5.638;2024-01-11T09:57:28;1.80;99.90
51567;DHT22;37657;53.182;5.638;2024-01-11T09:59:55;1.40;99.90
51567;DHT22;37657;53.182;5.638;2024-01-11T10:02:23;1.50;99.90
51567;DHT22;37657;53.182;5.638;2024-01-11T10:04:49;1.40;99.90
51567;DHT22;37657;53.182;5.638;2024-01-11T10:07:17;1.50;99.90
51567;DHT22;37657;53.182;5.638;2024-01-11T10:09:46;1.60;99.90
51567;DHT22;37657;53.182;5.638;2024-01-11T10:12:11;1.60;99.90
51567;DHT22;37657;53.182;5.638;2024-01-11T10:14:37;1.70;99.90
51567;DHT22;37657;53.182;5.638;2024-01-11T10:17:03;1.80;99.90
51567;DHT22;37657;53.182;5.638;2024-01-11T10:19:29;1.80;99.90
51567;DHT22;37657;53.182;5.638;2024-01-11T10:21:55;1.80;99.90
51567;DHT22;37657;53.182;5.638;2024-01-11T10:24:21;2.00;99.90
51567;DHT22;37657;53.182;5.638;2024-01-11T10:26:48;1.90;99.90
51567;DHT22;37657;53.182;5.638;2024-01-11T10:29:14;2.00;99.90
51567;DHT22;37657;53.182;5.638;2024-01-11T10:31:40;2.00;99.90
51567;DHT22;37657;53.182;5.638;2024-01-11T10:34:05;2.00;99.90
51567;DHT22;37657;53.182;5.638;2024-01-11T10:36:32;2.10;99.90
51567;DHT22;37657;53.182;5.638;2024-01-11T10:39:03;2.10;99.90
51567;DHT22;37657;53.182;5.638;2024-01-11T10:42:05;2.20;99.90
51567;DHT22;37657;53.182;5.638;2024-01-11T10:44:34;2.40;99.90
51567;DHT22;37657;53.182;5.638;2024-01-11T10:47:02;2.40;99.90
51567;DHT22;37657;53.182;5.638;2024-01-11T10:49:30;2.40;99.90
51567;DHT22;37657;53.182;5.638;2024-01-11T10:52:02;2.40;99.90
51567;DHT22;37657;53.182;5.638;2024-01-11T10:54:29;2.50;99.90
51567;DHT22;37657;53.182;5.638;2024-01-11T10:56:56;2.70;99.90
51567;DHT22;37657;53.182;5.638;2024-01-11T10:59:27;2.70;99.90
51567;DHT22;37657;53.182;5.638;2024-01-11T11:01:58;2.60;99.90
51567;DHT22;37657;53.182;5.638;2024-01-11T11:04:27;2.70;99.90
51567;DHT22;37657;53.182;5.638;2024-01-11T11:06:57;2.80;99.90
51567;DHT22;37657;53.182;5.638;2024-01-11T11:09:25;2.80;99.90
51567;DHT22;37657;53.182;5.638;2024-01-11T11:11:54;2.80;99.90
51567;DHT22;37657;53.182;5.638;2024-01-11T11:14:22;2.90;99.90
51567;DHT22;37657;53.182;5.638;2024-01-11T11:16:48;2.90;99.90
51567;DHT22;37657;53.182;5.638;2024-01-11T11:19:14;2.90;99.90
51567;DHT22;37657;53.182;5.638;2024-01-11T11:21:44;3.00;99.90
51567;DHT22;37657;53.182;5.638;2024-01-11T11:24:12;3.00;99.90
51567;DHT22;37657;53.182;5.638;2024-01-11T11:26:38;3.10;99.90
51567;DHT22;37657;53.182;5.638;2024-01-11T11:29:04;3.20;99.90
51567;DHT22;37657;53.182;5.638;2024-01-11T11:31:37;3.20;99.90
51567;DHT22;37657;53.182;5.638;2024-01-11T11:34:04;3.30;99.90
51567;DHT22;37657;53.182;5.638;2024-01-11T11:36:33;3.20;99.90
51567;DHT22;37657;53.182;5.638;2024-01-11T11:39:00;3.30;99.90
51567;DHT22;37657;53.182;5.638;2024-01-11T11:41:27;3.40;99.90
51567;DHT22;37657;53.182;5.638;2024-01-11T11:43:52;3.40;99.90
51567;DHT22;37657;53.182;5.638;2024-01-11T11:46:19;3.50;99.90
51567;DHT22;37657;53.182;5.638;2024-01-11T11:48:49;3.70;99.90
51567;DHT22;37657;53.182;5.638;2024-01-11T11:51:20;3.60;99.90
51567;DHT22;37657;53.182;5.638;2024-01-11T11:53:47;3.60;99.90
51567;DHT22;37657;53.182;5.638;2024-01-11T11:56:18;3.70;99.90
51567;DHT22;37657;53.182;5.638;2024-01-11T11:58:45;3.70;99.90
51567;DHT22;37657;53.182;5.638;2024-01-11T12:01:11;3.70;99.90
51567;DHT22;37657;53.182;5.638;2024-01-11T12:03:41;4.10;99.90
51567;DHT22;37657;53.182;5.638;2024-01-11T12:06:08;3.90;99.90
51567;DHT22;37657;53.182;5.638;2024-01-11T12:08:35;4.30;99.90
51567;DHT22;37657;53.182;5.638;2024-01-11T12:11:02;4.50;99.90
51567;DHT22;37657;53.182;5.638;2024-01-11T12:13:28;4.50;99.90
51567;DHT22;37657;53.182;5.638;2024-01-11T12:15:54;4.10;99.90
51567;DHT22;37657;53.182;5.638;2024-01-11T12:18:20;4.10;99.90
51567;DHT22;37657;53.182;5.638;2024-01-11T12:20:46;4.20;99.90
51567;DHT22;37657;53.182;5.638;2024-01-11T12:23:12;4.70;99.90
51567;DHT22;37657;53.182;5.638;2024-01-11T12:25:40;4.20;99.90
51567;DHT22;37657;53.182;5.638;2024-01-11T12:28:06;4.40;99.90
51567;DHT22;37657;53.182;5.638;2024-01-11T12:30:32;4.40;99.90
51567;DHT22;37657;53.182;5.638;2024-01-11T12:32:59;4.70;99.90
51567;DHT22;37657;53.182;5.638;2024-01-11T12:35:27;4.40;99.90
51567;DHT22;37657;53.182;5.638;2024-01-11T12:38:01;4.50;99.90
51567;DHT22;37657;53.182;5.638;2024-01-11T12:40:27;4.60;99.90
51567;DHT22;37657;53.182;5.638;2024-01-11T12:42:53;4.40;99.90
51567;DHT22;37657;53.182;5.638;2024-01-11T12:45:19;4.60;99.90
51567;DHT22;37657;53.182;5.638;2024-01-11T12:47:46;4.60;99.90
51567;DHT22;37657;53.182;5.638;2024-01-11T12:50:12;4.70;99.90
51567;DHT22;37657;53.182;5.638;2024-01-11T12:52:41;4.90;99.90
51567;DHT22;37657;53.182;5.638;2024-01-11T12:55:08;4.50;99.90
51567;DHT22;37657;53.182;5.638;2024-01-11T12:57:43;4.70;99.90
51567;DHT22;37657;53.182;5.638;2024-01-11T13:00:18;5.00;99.90
51567;DHT22;37657;53.182;5.638;2024-01-11T13:02:44;4.70;99.90
51567;DHT22;37657;53.182;5.638;2024-01-11T13:05:11;5.20;99.90
51567;DHT22;37657;53.182;5.638;2024-01-11T13:07:40;5.20;99.90
51567;DHT22;37657;53.182;5.638;2024-01-11T13:10:06;4.90;99.90
51567;DHT22;37657;53.182;5.638;2024-01-11T13:12:32;5.00;99.90
51567;DHT22;37657;53.182;5.638;2024-01-11T13:14:58;5.30;99.90
51567;DHT22;37657;53.182;5.638;2024-01-11T13:17:24;5.10;99.90
51567;DHT22;37657;53.182;5.638;2024-01-11T13:19:50;5.30;99.90
51567;DHT22;37657;53.182;5.638;2024-01-11T13:22:15;5.10;99.90
51567;DHT22;37657;53.182;5.638;2024-01-11T13:24:41;5.30;99.90
51567;DHT22;37657;53.182;5.638;2024-01-11T13:27:06;5.20;99.90
51567;DHT22;37657;53.182;5.638;2024-01-11T13:29:32;5.20;99.90
51567;DHT22;37657;53.182;5.638;2024-01-11T13:31:58;5.00;99.90
51567;DHT22;37657;53.182;5.638;2024-01-11T13:34:23;5.20;99.90
51567;DHT22;37657;53.182;5.638;2024-01-11T13:36:49;5.20;99.90
51567;DHT22;37657;53.182;5.638;2024-01-11T13:39:15;5.30;99.90
51567;DHT22;37657;53.182;5.638;2024-01-11T13:41:43;5.00;99.90
51567;DHT22;37657;53.182;5.638;2024-01-11T13:44:09;5.00;99.90
51567;DHT22;37657;53.182;5.638;2024-01-11T13:46:35;5.00;99.90
51567;DHT22;37657;53.182;5.638;2024-01-11T13:49:01;5.20;99.90
51567;DHT22;37657;53.182;5.638;2024-01-11T13:51:28;5.10;99.90
51567;DHT22;37657;53.182;5.638;2024-01-11T13:53:53;5.10;99.90
51567;DHT22;37657;53.182;5.638;2024-01-11T13:56:19;5.20;99.90
51567;DHT22;37657;53.182;5.638;2024-01-11T13:58:45;5.00;99.90
51567;DHT22;37657;53.182;5.638;2024-01-11T14:01:11;5.00;99.90
51567;DHT22;37657;53.182;5.638;2024-01-11T14:03:38;5.10;99.90
51567;DHT22;37657;53.182;5.638;2024-01-11T14:06:04;5.10;99.90
51567;DHT22;37657;53.182;5.638;2024-01-11T14:08:30;5.10;99.90
51567;DHT22;37657;53.182;5.638;2024-01-11T14:10:55;4.90;99.90
51567;DHT22;37657;53.182;5.638;2024-01-11T14:13:21;4.90;99.90
51567;DHT22;37657;53.182;5.638;2024-01-11T14:15:47;5.00;99.90
51567;DHT22;37657;53.182;5.638;2024-01-11T14:18:13;5.10;99.90
51567;DHT22;37657;53.182;5.638;2024-01-11T14:20:39;5.20;99.90
51567;DHT22;37657;53.182;5.638;2024-01-11T14:23:05;5.00;99.90
51567;DHT22;37657;53.182;5.638;2024-01-11T14:25:30;5.10;99.90
51567;DHT22;37657;53.182;5.638;2024-01-11T14:27:56;5.10;99.90
51567;DHT22;37657;53.182;5.638;2024-01-11T14:30:22;5.10;99.90
51567;DHT22;37657;53.182;5.638;2024-01-11T14:32:48;5.10;99.90
51567;DHT22;37657;53.182;5.638;2024-01-11T14:35:14;5.00;99.90
51567;DHT22;37657;53.182;5.638;2024-01-11T14:37:40;5.10;99.90
51567;DHT22;37657;53.182;5.638;2024-01-11T14:40:07;5.20;99.90
51567;DHT22;37657;53.182;5.638;2024-01-11T14:42:36;5.00;99.90
51567;DHT22;37657;53.182;5.638;2024-01-11T14:45:02;5.10;99.90
51567;DHT22;37657;53.182;5.638;2024-01-11T14:47:29;5.10;99.90
51567;DHT22;37657;53.182;5.638;2024-01-11T14:49:57;5.00;99.90
51567;DHT22;37657;53.182;5.638;2024-01-11T14:52:23;5.00;99.90
51567;DHT22;37657;53.182;5.638;2024-01-11T14:54:48;5.20;99.90
51567;DHT22;37657;53.182;5.638;2024-01-11T14:57:15;5.20;99.90
51567;DHT22;37657;53.182;5.638;2024-01-11T14:59:40;4.90;99.90
51567;DHT22;37657;53.182;5.638;2024-01-11T15:02:06;4.90;99.90
51567;DHT22;37657;53.182;5.638;2024-01-11T15:04:32;5.10;99.90
51567;DHT22;37657;53.182;5.638;2024-01-11T15:06:57;4.90;99.90
51567;DHT22;37657;53.182;5.638;2024-01-11T15:09:23;4.90;99.90
51567;DHT22;37657;53.182;5.638;2024-01-11T15:11:49;5.10;99.90
51567;DHT22;37657;53.182;5.638;2024-01-11T15:14:15;5.10;99.90
51567;DHT22;37657;53.182;5.638;2024-01-11T15:16:41;4.90;99.90
51567;DHT22;37657;53.182;5.638;2024-01-11T15:19:10;5.10;99.90
51567;DHT22;37657;53.182;5.638;2024-01-11T15:21:35;5.10;99.90
51567;DHT22;37657;53.182;5.638;2024-01-11T15:24:01;5.00;99.90
51567;DHT22;37657;53.182;5.638;2024-01-11T15:26:27;4.90;99.90
51567;DHT22;37657;53.182;5.638;2024-01-11T15:28:53;5.50;99.90
51567;DHT22;37657;53.182;5.638;2024-01-11T15:31:18;5.00;99.90